createdAt,value
2023-01-22T00:02:00.153Z,6.07
2023-01-22T00:30:47.267Z,6.18
2023-01-22T00:35:53.175Z,6.22
2023-01-22T00:41:18.858Z,5.97
2023-01-22T00:46:23.677Z,5.65
2023-01-22T00:58:36.264Z,5.30
2023-01-22T01:03:40.231Z,5.56
2023-01-22T01:15:35.259Z,6.37
2023-01-22T01:21:05.227Z,6.47
2023-01-22T01:27:31.087Z,7.51
2023-01-22T01:39:28.664Z,4.71
2023-01-22T01:45:34.071Z,5.24
2023-01-22T01:50:43.648Z,5.08
2023-01-22T02:03:04.766Z,4.90
2023-01-22T02:17:38.206Z,4.95
2023-01-22T02:24:29.142Z,5.92
2023-01-22T02:30:23.498Z,6.85
2023-01-22T02:35:27.231Z,7.23
2023-01-22T02:50:49.616Z,5.80
2023-01-22T03:04:30.137Z,6.03
2023-01-22T03:18:39.155Z,6.12
2023-01-22T03:23:46.178Z,7.38
2023-01-22T03:29:15.444Z,5.91
2023-01-22T04:04:00.282Z,4.47
2023-01-22T04:17:59.411Z,4.57
2023-01-22T04:33:27.754Z,4.67
2023-01-22T04:49:08.276Z,4.65
2023-01-22T05:16:29.892Z,4.71
2023-01-22T05:21:33.744Z,4.66
2023-01-22T05:54:41.029Z,4.27
2023-01-22T05:59:44.867Z,4.29
2023-01-22T06:10:24.135Z,4.35
2023-01-22T06:15:26.443Z,4.42
2023-01-22T06:21:02.751Z,4.44
2023-01-22T06:26:05.511Z,4.42
2023-01-22T06:32:50.957Z,4.38
2023-01-22T06:38:19.238Z,4.38
2023-01-22T06:44:38.946Z,4.48
2023-01-22T06:51:02.273Z,4.51
2023-01-22T06:56:05.331Z,4.58
2023-01-22T07:01:59.496Z,4.60
2023-01-22T07:07:54.058Z,4.63
2023-01-22T07:12:58.920Z,4.64
2023-01-22T07:18:01.318Z,4.63
2023-01-22T07:23:03.764Z,4.55
2023-01-22T07:28:08.151Z,4.38
2023-01-22T07:33:12.149Z,4.29
2023-01-22T07:38:15.371Z,4.27
2023-01-22T07:43:36.479Z,4.27
2023-01-22T07:48:38.981Z,4.37
2023-01-22T07:53:42.464Z,4.39
2023-01-22T07:58:47.076Z,4.41
2023-01-22T08:03:52.292Z,4.50
2023-01-22T08:09:25.313Z,4.64
2023-01-22T08:14:27.670Z,4.84
2023-01-22T08:19:30.510Z,4.86
2023-01-22T08:24:34.228Z,4.88
2023-01-22T08:29:36.740Z,4.86
2023-01-22T08:35:29.700Z,4.81
2023-01-22T08:41:48.369Z,4.86
2023-01-22T08:48:08.569Z,4.93
2023-01-22T08:53:10.970Z,4.91
2023-01-22T08:58:38.468Z,4.88
2023-01-22T09:04:58.286Z,5.07
2023-01-22T09:10:50.754Z,5.02
2023-01-22T09:15:58.512Z,4.96
2023-01-22T09:21:26.550Z,5.10
2023-01-22T09:27:45.221Z,5.05
2023-01-22T09:34:04.229Z,5.03
2023-01-22T09:40:00.376Z,5.17
2023-01-22T09:45:11.381Z,5.28
2023-01-22T09:50:34.458Z,5.35
2023-01-22T09:55:46.166Z,5.30
2023-01-22T10:02:11.224Z,5.29
2023-01-22T10:07:42.179Z,5.38
2023-01-22T10:13:38.571Z,5.39
2023-01-22T10:19:06.447Z,5.50
2023-01-22T10:24:12.426Z,5.51
2023-01-22T10:30:19.120Z,5.62
2023-01-22T10:36:14.495Z,5.61
2023-01-22T10:41:20.588Z,5.68
2023-01-22T10:46:42.329Z,5.68
2023-01-22T10:52:17.110Z,5.71
2023-01-22T10:57:34.933Z,5.64
2023-01-22T11:02:43.513Z,5.62
2023-01-22T11:07:51.703Z,5.60
2023-01-22T11:13:55.138Z,5.75
2023-01-22T11:20:13.400Z,6.07
2023-01-22T11:26:32.018Z,6.15
2023-01-22T11:32:22.033Z,6.22
2023-01-22T11:38:05.759Z,6.27
2023-01-22T11:43:35.469Z,6.23
2023-01-22T11:49:46.204Z,6.10
2023-01-22T11:55:47.645Z,6.21
2023-01-22T12:01:52.615Z,6.24
2023-01-22T12:07:32.360Z,6.37
2023-01-22T12:18:25.371Z,6.33
2023-01-22T12:23:47.027Z,6.35
2023-01-22T12:29:25.685Z,6.31
2023-01-22T12:42:17.113Z,6.14
2023-01-22T12:47:40.777Z,6.31
2023-01-22T12:52:44.596Z,6.54
2023-01-22T12:58:47.187Z,6.66
2023-01-22T13:04:09.751Z,6.66
2023-01-22T13:09:31.318Z,6.68
2023-01-22T13:14:41.557Z,6.68
2023-01-22T13:19:46.825Z,6.64
2023-01-22T13:24:55.574Z,6.62
2023-01-22T13:30:18.390Z,6.49
2023-01-22T13:49:48.383Z,6.28
2023-01-22T13:56:14.837Z,6.34
2023-01-22T14:01:33.388Z,6.42
2023-01-22T14:06:49.823Z,6.43
2023-01-22T14:12:27.880Z,6.41
2023-01-22T14:18:48.988Z,6.41
2023-01-22T14:23:52.541Z,6.36
2023-01-22T14:36:36.304Z,6.20
2023-01-22T14:42:21.457Z,5.56
2023-01-22T14:47:26.570Z,4.37
2023-01-22T14:52:33.840Z,5.51
2023-01-22T14:57:37.814Z,6.43
2023-01-22T15:02:47.615Z,6.85
2023-01-22T15:07:52.123Z,7.06
2023-01-22T15:12:55.945Z,6.56
2023-01-22T15:17:59.668Z,4.76
2023-01-22T15:23:22.329Z,4.68
2023-01-22T15:28:26.771Z,5.92
2023-01-22T15:33:30.597Z,6.34
2023-01-22T15:38:37.805Z,6.90
2023-01-22T15:44:02.590Z,5.97
2023-01-22T15:49:47.244Z,4.10
2023-01-22T15:55:01.160Z,4.09
2023-01-22T16:00:06.927Z,5.48
2023-01-22T16:05:13.420Z,5.65
2023-01-22T16:10:19.349Z,5.70
2023-01-22T16:15:36.128Z,5.69
2023-01-22T16:20:42.457Z,5.68
2023-01-22T16:41:24.962Z,6.09
2023-01-22T16:46:33.984Z,6.13
2023-01-22T16:52:21.308Z,6.09
2023-01-22T17:12:18.421Z,5.67
2023-01-22T17:17:23.125Z,5.41
2023-01-22T17:22:27.444Z,5.37
2023-01-22T17:27:50.762Z,5.41
2023-01-22T17:32:54.512Z,5.58
2023-01-22T17:37:58.110Z,5.56
2023-01-22T17:43:02.695Z,5.58
2023-01-22T17:48:21.826Z,5.55
2023-01-22T17:53:30.807Z,5.61
2023-01-22T17:58:35.270Z,5.64
2023-01-22T18:03:39.734Z,5.50
2023-01-22T18:08:44.261Z,5.54
2023-01-22T18:13:48.879Z,5.53
2023-01-22T18:26:58.325Z,5.62
2023-01-22T18:32:17.877Z,5.17
2023-01-22T18:38:59.398Z,3.76
2023-01-22T18:44:29.355Z,3.72
2023-01-22T18:49:33.269Z,4.36
2023-01-22T18:55:34.056Z,4.53
2023-01-22T19:01:31.335Z,4.76
2023-01-22T19:13:54.635Z,4.88
2023-01-22T19:20:33.510Z,4.93
2023-01-22T19:25:37.646Z,5.13
2023-01-22T19:30:41.387Z,5.24
2023-01-22T19:43:12.565Z,5.21
2023-01-22T19:49:08.338Z,5.22
2023-01-22T20:00:16.222Z,4.80
2023-01-22T20:05:21.200Z,3.24
2023-01-22T20:17:41.880Z,4.67
2023-01-22T20:22:45.767Z,5.00
2023-01-22T20:35:53.135Z,5.19
2023-01-22T20:41:05.603Z,5.28
2023-01-22T20:50:43.902Z,4.89
2023-01-22T20:55:49.164Z,4.07
2023-01-22T21:08:02.332Z,5.00
2023-01-22T21:13:06.351Z,5.00
2023-01-22T21:18:29.233Z,5.00
2023-01-22T21:23:37.161Z,4.96
2023-01-22T21:29:06.613Z,4.99
2023-01-22T21:34:36.948Z,5.05
2023-01-22T21:39:45.467Z,5.04
2023-01-22T21:45:12.732Z,5.02
2023-01-22T21:50:17.206Z,5.06
2023-01-22T21:56:16.921Z,4.98
2023-01-22T22:01:22.760Z,4.86
2023-01-22T22:06:30.768Z,4.80
2023-01-22T22:11:35.657Z,4.96
2023-01-22T22:16:39.888Z,4.92
2023-01-22T22:21:44.041Z,4.81
2023-01-22T22:26:49.749Z,4.80
2023-01-22T22:31:53.837Z,4.79
2023-01-22T22:36:57.997Z,4.73
2023-01-22T22:42:01.882Z,4.74
2023-01-22T22:47:05.758Z,4.68
2023-01-22T22:52:09.534Z,4.62
2023-01-22T22:57:16.361Z,4.63
2023-01-22T23:02:21.814Z,4.66
2023-01-22T23:07:26.680Z,4.69
2023-01-22T23:12:30.926Z,4.71
2023-01-22T23:17:35.713Z,4.76
2023-01-22T23:22:39.651Z,4.87
2023-01-22T23:27:45.176Z,4.91
2023-01-22T23:32:49.160Z,4.91
2023-01-22T23:37:52.772Z,4.84
2023-01-22T23:42:56.475Z,4.81
2023-01-22T23:48:02.264Z,4.78
2023-01-22T23:53:06.089Z,4.71
2023-01-22T23:58:12.896Z,4.66
